Time;durP1;ratioP1;P1;durP2;ratioP2;P2;SDS_P1;SDS_P2;PMS_P1;PMS_P2;Temp;Humidity;BMP_temperature;BMP_pressure;BME280_temperature;BME280_humidity;BME280_pressure;Samples;Min_cycle;Max_cycle;Signal;HPM_P1;HPM_P2
2021/08/18 00:01:11;;;;;;;52.25;31.23;;;22.90;86.60;;;;;;5036474;28;20022;-71
2021/08/18 00:03:37;;;;;;;49.97;31.73;;;22.90;87.10;;;;;;5041316;28;20055;-71
2021/08/18 00:06:03;;;;;;;45.38;28.85;;;22.80;87.30;;;;;;5055840;28;20025;-71
2021/08/18 00:08:28;;;;;;;43.10;29.40;;;22.80;87.40;;;;;;5056488;28;20021;-71
2021/08/18 00:10:54;;;;;;;45.20;29.13;;;22.80;87.40;;;;;;5055968;28;20025;-71
2021/08/18 00:13:23;;;;;;;42.60;28.88;;;22.80;87.50;;;;;;5056108;28;20025;-71
2021/08/18 00:15:50;;;;;;;43.25;27.95;;;22.70;88.00;;;;;;5056218;28;20461;-71
2021/08/18 00:18:16;;;;;;;43.65;29.77;;;22.70;88.10;;;;;;5054267;28;20386;-71
2021/08/18 00:20:42;;;;;;;49.15;31.13;;;22.70;88.40;;;;;;5035517;28;20022;-71
2021/08/18 00:23:08;;;;;;;44.80;29.23;;;22.60;88.80;;;;;;5035656;28;20045;-71
2021/08/18 00:25:34;;;;;;;41.72;28.83;;;22.60;89.10;;;;;;5036039;28;20101;-71
2021/08/18 00:28:00;;;;;;;50.85;29.98;;;22.50;89.50;;;;;;5036074;28;20018;-71
2021/08/18 00:30:26;;;;;;;44.60;30.33;;;22.50;89.80;;;;;;5035393;28;20077;-71
2021/08/18 00:32:53;;;;;;;41.47;27.42;;;22.50;90.00;;;;;;5035363;28;20096;-71
2021/08/18 00:35:18;;;;;;;48.40;30.90;;;22.40;90.10;;;;;;5051747;28;20021;-71
2021/08/18 00:37:44;;;;;;;44.58;28.95;;;22.40;90.20;;;;;;5055731;28;20070;-71
2021/08/18 00:40:11;;;;;;;42.00;28.00;;;22.40;90.30;;;;;;5055662;28;20096;-71
2021/08/18 00:42:38;;;;;;;39.55;27.17;;;22.40;90.40;;;;;;5055115;28;20479;-71
2021/08/18 00:45:05;;;;;;;42.55;26.40;;;22.40;90.50;;;;;;5055510;28;20070;-71
2021/08/18 00:47:42;;;;;;;40.15;26.90;;;22.30;90.40;;;;;;5053545;28;20024;-71
2021/08/18 00:50:10;;;;;;;37.83;26.02;;;22.30;90.50;;;;;;5055285;28;20095;-71
2021/08/18 00:52:36;;;;;;;40.50;26.35;;;22.30;90.70;;;;;;5055225;28;20021;-71
2021/08/18 00:55:01;;;;;;;40.40;27.60;;;22.30;90.80;;;;;;5054859;28;20468;-71
2021/08/18 00:57:27;;;;;;;43.72;26.00;;;22.30;90.90;;;;;;5055066;28;20049;-71
2021/08/18 00:59:54;;;;;;;40.70;26.17;;;22.30;91.00;;;;;;5054893;28;20021;-71
2021/08/18 01:02:20;;;;;;;39.08;26.10;;;22.20;91.10;;;;;;5049195;28;20488;-71
2021/08/18 01:04:46;;;;;;;35.75;22.90;;;22.20;91.10;;;;;;5033654;28;20034;-71
2021/08/18 01:07:13;;;;;;;44.70;26.00;;;22.20;91.10;;;;;;5035070;28;20495;-71
2021/08/18 01:09:38;;;;;;;33.08;24.25;;;22.20;91.10;;;;;;5034589;28;20414;-71
2021/08/18 01:12:04;;;;;;;42.85;25.92;;;22.10;91.20;;;;;;5034587;28;20121;-71
2021/08/18 01:14:30;;;;;;;40.33;26.75;;;22.10;91.30;;;;;;5034943;28;20029;-71
2021/08/18 01:16:56;;;;;;;39.28;24.88;;;22.10;91.30;;;;;;5035321;28;20045;-71
2021/08/18 01:19:21;;;;;;;35.80;24.30;;;22.10;91.40;;;;;;5054838;28;20025;-71
2021/08/18 01:21:49;;;;;;;40.70;26.63;;;22.10;91.50;;;;;;5054665;28;20036;-71
2021/08/18 01:24:18;;;;;;;39.67;25.10;;;22.10;91.50;;;;;;5054638;28;20079;-71
2021/08/18 01:26:44;;;;;;;39.20;25.07;;;22.00;91.50;;;;;;5054444;28;20056;-71
2021/08/18 01:29:10;;;;;;;34.90;24.20;;;22.10;91.60;;;;;;5054312;28;20467;-71
2021/08/18 01:31:36;;;;;;;39.55;25.38;;;22.00;91.60;;;;;;5054717;28;20074;-71
2021/08/18 01:34:04;;;;;;;39.50;25.67;;;22.00;91.70;;;;;;5037373;28;20408;-71
2021/08/18 01:36:31;;;;;;;40.78;25.80;;;22.00;91.70;;;;;;5034264;28;20022;-71
2021/08/18 01:39:04;;;;;;;37.17;24.13;;;22.00;91.70;;;;;;5034107;28;20030;-71
2021/08/18 01:41:30;;;;;;;38.58;24.17;;;22.00;91.80;;;;;;5034240;28;20047;-71
2021/08/18 01:43:56;;;;;;;36.65;25.38;;;21.90;91.80;;;;;;5033783;28;20030;-71
2021/08/18 01:46:22;;;;;;;36.80;25.90;;;21.90;91.90;;;;;;5034217;28;20032;-71
2021/08/18 01:48:47;;;;;;;36.42;24.67;;;21.90;91.90;;;;;;5046556;28;20452;-71
2021/08/18 01:51:13;;;;;;;43.28;24.17;;;21.90;91.90;;;;;;5054375;28;20024;-71
2021/08/18 01:53:45;;;;;;;34.88;23.20;;;21.90;92.00;;;;;;5054138;28;20055;-71
2021/08/18 01:56:14;;;;;;;40.35;26.90;;;21.90;92.00;;;;;;5054046;28;20025;-73
2021/08/18 01:58:41;;;;;;;39.95;27.98;;;22.00;92.00;;;;;;5054156;28;20032;-72
2021/08/18 02:01:09;;;;;;;43.90;29.13;;;22.00;91.70;;;;;;5054115;28;20029;-71
2021/08/18 02:03:36;;;;;;;44.03;28.67;;;22.00;91.60;;;;;;5045315;28;20028;-72
2021/08/18 02:06:02;;;;;;;44.20;29.50;;;22.00;91.60;;;;;;5034127;28;20033;-72
2021/08/18 02:08:28;;;;;;;44.90;27.48;;;22.00;91.70;;;;;;5034224;28;20024;-72
2021/08/18 02:10:53;;;;;;;46.97;29.42;;;22.00;91.90;;;;;;5034157;28;20021;-71
2021/08/18 02:13:19;;;;;;;44.42;28.45;;;22.00;92.00;;;;;;5033608;28;20101;-71
2021/08/18 02:15:45;;;;;;;42.38;28.50;;;22.00;92.00;;;;;;5033863;28;20366;-71
2021/08/18 02:18:14;;;;;;;40.25;26.00;;;21.90;92.00;;;;;;5037052;28;20052;-71
2021/08/18 02:20:41;;;;;;;43.08;28.65;;;22.00;92.00;;;;;;5054277;28;20060;-71
2021/08/18 02:23:07;;;;;;;45.90;28.88;;;22.00;92.00;;;;;;5053187;28;20049;-72
2021/08/18 02:25:36;;;;;;;40.58;27.77;;;22.00;91.90;;;;;;5054049;28;20113;-71
2021/08/18 02:28:03;;;;;;;45.65;29.40;;;22.00;91.80;;;;;;5053496;28;20406;-71
2021/08/18 02:30:29;;;;;;;47.55;30.60;;;22.10;91.80;;;;;;5053340;28;20025;-71
2021/08/18 02:32:55;;;;;;;50.25;31.92;;;22.10;91.70;;;;;;5053497;28;20067;-72
2021/08/18 02:35:22;;;;;;;48.72;32.92;;;22.20;91.30;;;;;;5028433;28;20034;-71
2021/08/18 02:37:48;;;;;;;44.85;29.77;;;22.20;91.20;;;;;;5013778;28;20026;-71
2021/08/18 02:40:18;;;;;;;47.85;31.70;;;22.30;91.30;;;;;;5013695;28;20068;-71
2021/08/18 02:42:44;;;;;;;45.50;29.60;;;22.30;91.20;;;;;;5013779;28;20021;-71
2021/08/18 02:45:10;;;;;;;51.90;34.67;;;22.30;91.30;;;;;;5015096;28;20050;-72
2021/08/18 02:47:36;;;;;;;46.42;30.92;;;22.40;90.60;;;;;;5017667;28;20053;-71
2021/08/18 02:50:04;;;;;;;52.28;33.45;;;22.30;90.60;;;;;;5049052;28;20472;-72
2021/08/18 02:52:30;;;;;;;50.70;31.83;;;22.40;90.40;;;;;;5057062;28;20017;-73
2021/08/18 02:54:55;;;;;;;48.78;29.17;;;22.30;90.50;;;;;;5057112;28;20036;-74
2021/08/18 02:57:21;;;;;;;51.45;31.75;;;22.30;90.70;;;;;;5057393;28;20040;-72
2021/08/18 02:59:47;;;;;;;46.55;28.80;;;22.30;90.90;;;;;;5057189;28;20025;-71
2021/08/18 03:02:12;;;;;;;49.95;28.23;;;22.20;91.20;;;;;;5049238;28;20039;-70
2021/08/18 03:04:38;;;;;;;43.00;25.00;;;22.10;91.50;;;;;;5038262;28;20043;-70
2021/08/18 03:07:04;;;;;;;31.25;19.92;;;22.10;92.00;;;;;;5037478;28;20021;-70
2021/08/18 03:09:30;;;;;;;30.77;18.42;;;22.10;92.20;;;;;;5037005;28;20025;-71
2021/08/18 03:11:56;;;;;;;30.60;17.77;;;22.10;92.70;;;;;;5037745;28;20104;-72
2021/08/18 03:14:21;;;;;;;24.45;15.82;;;22.20;93.30;;;;;;5037087;28;20108;-70
2021/08/18 03:16:48;;;;;;;27.45;16.48;;;22.10;93.50;;;;;;5050627;28;20025;-71
2021/08/18 03:19:14;;;;;;;25.13;15.18;;;22.10;93.80;;;;;;5057255;28;20029;-70
2021/08/18 03:21:40;;;;;;;23.70;15.35;;;22.20;94.00;;;;;;5056632;28;20056;-70
2021/08/18 03:24:06;;;;;;;22.13;15.40;;;22.20;94.20;;;;;;5056464;28;20091;-70
2021/08/18 03:26:32;;;;;;;23.67;14.90;;;22.30;94.50;;;;;;5052726;28;20014;-70
2021/08/18 03:28:57;;;;;;;26.15;14.95;;;22.30;94.50;;;;;;5036996;28;20416;-69
2021/08/18 03:31:23;;;;;;;20.25;14.25;;;22.40;94.90;;;;;;5038547;28;20078;-70
2021/08/18 03:33:49;;;;;;;22.50;14.27;;;22.40;95.00;;;;;;5036407;28;20022;-70
2021/08/18 03:36:14;;;;;;;25.15;13.98;;;22.50;95.00;;;;;;5035481;28;20037;-73
2021/08/18 03:38:40;;;;;;;17.80;13.68;;;22.60;95.30;;;;;;5036892;28;20025;-72
2021/08/18 03:41:06;;;;;;;21.73;13.32;;;22.60;95.50;;;;;;5036657;28;20415;-71
2021/08/18 03:43:32;;;;;;;18.10;12.35;;;22.70;95.80;;;;;;5055263;28;20356;-73
2021/08/18 03:45:58;;;;;;;15.23;11.25;;;22.80;96.10;;;;;;5054779;28;20032;-73
2021/08/18 03:48:23;;;;;;;16.08;11.38;;;22.80;96.20;;;;;;5056369;28;20063;-70
2021/08/18 03:50:49;;;;;;;17.05;11.07;;;22.80;96.40;;;;;;5055960;28;20021;-71
2021/08/18 03:53:16;;;;;;;14.32;10.65;;;22.80;96.50;;;;;;5036302;28;20034;-72
2021/08/18 03:55:42;;;;;;;17.58;11.55;;;22.80;96.70;;;;;;5037041;28;20129;-72
2021/08/18 03:58:07;;;;;;;20.63;10.63;;;22.80;96.90;;;;;;5036121;28;20057;-73
2021/08/18 04:00:33;;;;;;;14.50;9.85;;;22.80;96.90;;;;;;5037239;28;20479;-72
2021/08/18 04:03:00;;;;;;;16.85;9.23;;;22.90;97.10;;;;;;5045524;28;20079;-71
2021/08/18 04:05:26;;;;;;;9.60;8.60;;;22.90;97.20;;;;;;5036198;28;20376;-71
2021/08/18 04:07:52;;;;;;;14.35;8.32;;;22.90;97.30;;;;;;5036342;28;20026;-71
2021/08/18 04:10:17;;;;;;;13.25;8.35;;;22.90;97.40;;;;;;5036007;28;20100;-71
2021/08/18 17:36:18;;;;;;;51.42;32.58;;;20.20;99.90;;;;;;5070109;28;20383;-82
2021/08/18 17:38:43;;;;;;;71.15;40.85;;;20.00;99.90;;;;;;5070119;28;20079;-81
2021/08/18 17:41:09;;;;;;;59.38;35.67;;;20.00;99.90;;;;;;5068960;28;20534;-92
2021/08/18 17:43:35;;;;;;;58.25;35.08;;;20.20;99.90;;;;;;5069050;28;20382;-74
2021/08/18 17:46:00;;;;;;;71.05;44.95;;;20.30;99.90;;;;;;5070196;28;20434;-78
2021/08/18 17:48:26;;;;;;;71.47;40.95;;;20.50;99.90;;;;;;5070190;28;20030;-77
2021/08/18 17:50:52;;;;;;;72.50;47.20;;;20.50;99.90;;;;;;5070172;28;20033;-74
2021/08/18 17:53:18;;;;;;;58.25;36.08;;;20.50;99.90;;;;;;5069913;28;20025;-81
2021/08/18 17:55:44;;;;;;;56.35;34.85;;;20.60;99.90;;;;;;5068509;28;20062;-84
2021/08/18 17:58:10;;;;;;;45.25;28.63;;;20.70;99.90;;;;;;5070057;28;20032;-84
2021/08/18 18:00:37;;;;;;;59.35;35.50;;;20.70;99.90;;;;;;5068711;28;20025;-81
2021/08/18 18:03:04;;;;;;;54.00;30.80;;;20.80;99.90;;;;;;5069827;28;20039;-79
2021/08/18 18:05:30;;;;;;;43.80;27.92;;;20.80;99.90;;;;;;5068538;28;20032;-81
2021/08/18 18:07:57;;;;;;;76.63;39.85;;;20.90;99.90;;;;;;5069766;28;20039;-81
2021/08/18 18:10:23;;;;;;;44.15;31.98;;;21.00;99.90;;;;;;5069698;28;20020;-74
2021/08/18 18:12:49;;;;;;;50.10;32.63;;;21.00;99.90;;;;;;5069712;28;20029;-71
2021/08/18 18:15:15;;;;;;;51.97;33.60;;;21.00;99.90;;;;;;5069516;28;20100;-68
2021/08/18 18:17:41;;;;;;;38.67;24.38;;;21.10;99.90;;;;;;5069301;28;20025;-76
2021/08/18 18:20:08;;;;;;;32.50;23.17;;;21.00;99.90;;;;;;5069261;28;20017;-76
2021/08/18 18:22:34;;;;;;;48.85;31.90;;;21.00;99.90;;;;;;5069225;28;20016;-76
2021/08/18 18:25:04;;;;;;;37.33;24.77;;;21.10;99.90;;;;;;5069165;28;20035;-77
2021/08/18 18:27:30;;;;;;;;;;;21.00;99.90;;;;;;5068873;28;20489;-75
2021/08/18 18:29:55;;;;;;;38.33;26.02;;;21.10;99.90;;;;;;5069019;28;19911;-76
2021/08/18 18:32:21;;;;;;;36.28;25.00;;;21.10;99.90;;;;;;5070522;28;20021;-82
2021/08/18 18:34:50;;;;;;;36.05;23.45;;;21.20;99.90;;;;;;5078707;28;20064;-82
2021/08/18 18:37:15;;;;;;;132.50;52.60;;;21.20;99.90;;;;;;5070255;28;20032;-81
2021/08/18 18:39:41;;;;;;;44.13;28.92;;;21.30;99.90;;;;;;5068908;28;20351;-79
2021/08/18 18:42:07;;;;;;;38.90;25.60;;;21.40;99.90;;;;;;5068382;28;20032;-76
2021/08/18 18:44:33;;;;;;;36.95;25.98;;;21.20;99.90;;;;;;5068593;28;20055;-77
2021/08/18 18:46:59;;;;;;;33.90;23.20;;;21.10;99.90;;;;;;5059013;28;20037;-81
2021/08/18 18:49:25;;;;;;;44.30;28.10;;;21.10;99.90;;;;;;5055583;28;20033;-77
2021/08/18 18:51:51;;;;;;;30.17;21.73;;;21.10;99.90;;;;;;5055380;28;20029;-78
2021/08/18 18:54:16;;;;;;;32.65;22.45;;;20.90;99.90;;;;;;5055205;28;20029;-79
2021/08/18 18:56:42;;;;;;;41.50;28.10;;;21.00;99.90;;;;;;5054013;28;20108;-79
2021/08/18 18:59:09;;;;;;;39.40;25.98;;;21.00;99.90;;;;;;5055492;28;20021;-82
2021/08/18 19:01:35;;;;;;;30.55;21.98;;;21.00;99.90;;;;;;5053989;28;20017;-78
2021/08/18 19:04:01;;;;;;;44.08;29.77;;;21.00;99.90;;;;;;5055174;28;20386;-78
2021/08/18 19:06:27;;;;;;;35.15;24.73;;;21.00;99.90;;;;;;5055151;28;20017;-77
2021/08/18 19:08:54;;;;;;;38.83;26.58;;;21.00;99.90;;;;;;5055068;28;20063;-73
2021/08/18 19:11:20;;;;;;;29.52;21.58;;;20.90;99.90;;;;;;5055426;28;20039;-76
2021/08/18 19:13:47;;;;;;;34.13;23.98;;;20.90;99.90;;;;;;5055698;28;20351;-79
2021/08/18 19:16:13;;;;;;;28.00;20.55;;;20.80;99.90;;;;;;5055604;28;20475;-74
2021/08/18 19:18:38;;;;;;;28.75;21.75;;;20.70;99.90;;;;;;5055627;28;20025;-72
2021/08/18 19:21:06;;;;;;;36.33;26.85;;;20.80;99.90;;;;;;5055290;28;20024;-74
2021/08/18 19:23:33;;;;;;;43.58;31.27;;;20.80;99.90;;;;;;5055509;28;20021;-77
2021/08/18 19:25:59;;;;;;;38.85;30.60;;;20.80;99.90;;;;;;5054256;28;20037;-77
2021/08/18 19:28:24;;;;;;;38.53;29.65;;;20.80;99.90;;;;;;5055430;28;20390;-77
2021/08/18 19:30:50;;;;;;;33.97;25.10;;;20.80;99.90;;;;;;5055346;28;20390;-75
2021/08/18 19:33:16;;;;;;;31.38;23.38;;;20.70;99.90;;;;;;5054987;28;20029;-76
2021/08/18 19:35:43;;;;;;;25.33;20.55;;;20.70;99.90;;;;;;5053583;28;20061;-74
2021/08/18 19:38:10;;;;;;;36.40;26.58;;;20.70;99.90;;;;;;5055187;28;20475;-70
2021/08/18 19:40:38;;;;;;;34.88;25.95;;;20.70;99.90;;;;;;5054690;28;20485;-74
2021/08/18 19:43:04;;;;;;;29.30;22.45;;;20.70;99.90;;;;;;5055082;28;20036;-77
2021/08/18 19:45:29;;;;;;;29.60;21.30;;;20.60;99.90;;;;;;5055182;28;20037;-70
2021/08/18 19:47:55;;;;;;;32.25;22.70;;;20.60;99.90;;;;;;5054711;28;20467;-74
2021/08/18 19:50:21;;;;;;;20.63;17.35;;;20.60;99.90;;;;;;5054705;28;20037;-75
2021/08/18 19:52:47;;;;;;;28.00;20.15;;;20.60;99.90;;;;;;5054867;28;20025;-74
2021/08/18 19:55:13;;;;;;;22.38;17.85;;;20.60;99.90;;;;;;5055082;28;20075;-73
2021/08/18 19:57:42;;;;;;;23.85;18.88;;;20.60;99.90;;;;;;5053717;28;20513;-73
2021/08/18 20:00:08;;;;;;;24.52;18.85;;;20.60;99.90;;;;;;5054512;28;20025;-74
2021/08/18 20:02:34;;;;;;;26.13;20.83;;;20.60;99.90;;;;;;5054496;28;20041;-71
2021/08/18 20:05:00;;;;;;;23.00;18.40;;;20.60;99.90;;;;;;5054240;28;20056;-71
2021/08/18 20:07:25;;;;;;;25.00;18.35;;;20.60;99.90;;;;;;5054276;28;20371;-73
2021/08/18 20:09:51;;;;;;;24.25;19.58;;;20.60;99.90;;;;;;5054459;28;20570;-75
2021/08/18 20:12:17;;;;;;;28.05;21.15;;;20.60;99.90;;;;;;5054471;28;20025;-71
2021/08/18 20:14:42;;;;;;;21.80;17.30;;;20.60;99.90;;;;;;5054822;28;20021;-76
2021/08/18 20:17:10;;;;;;;24.27;17.95;;;20.60;99.90;;;;;;5054682;28;20025;-74
2021/08/18 20:19:36;;;;;;;23.83;18.17;;;20.50;99.90;;;;;;5054375;28;20023;-73
2021/08/18 20:22:02;;;;;;;21.55;17.40;;;20.50;99.90;;;;;;5054736;28;20092;-76
2021/08/18 20:24:28;;;;;;;29.88;22.27;;;20.60;99.90;;;;;;5054647;28;20108;-71
2021/08/18 20:26:54;;;;;;;24.85;19.10;;;20.60;99.90;;;;;;5054576;28;20439;-77
2021/08/18 20:29:20;;;;;;;27.00;20.92;;;20.50;99.90;;;;;;5054336;28;20025;-72
2021/08/18 20:31:47;;;;;;;24.70;20.17;;;20.50;99.90;;;;;;5055013;28;20075;-80
2021/08/18 20:34:14;;;;;;;22.48;18.25;;;20.40;99.90;;;;;;5054001;28;20057;-73
2021/08/18 20:36:42;;;;;;;25.67;20.35;;;20.40;99.90;;;;;;5054385;28;20013;-74
2021/08/18 20:39:09;;;;;;;25.75;18.90;;;20.40;99.90;;;;;;5052952;28;20380;-71
2021/08/18 20:41:37;;;;;;;24.85;17.23;;;20.40;99.90;;;;;;5054173;28;20074;-73
2021/08/18 20:44:11;;;;;;;22.52;17.90;;;20.40;99.90;;;;;;5053927;28;20021;-71
2021/08/18 20:46:37;;;;;;;21.25;17.80;;;20.40;99.90;;;;;;5054237;28;20128;-73
2021/08/18 20:49:14;;;;;;;24.83;18.95;;;20.40;99.90;;;;;;5054194;28;20099;-73
2021/08/18 20:51:41;;;;;;;26.35;20.08;;;20.50;99.90;;;;;;5054275;28;20447;-75
2021/08/18 20:54:06;;;;;;;24.30;18.42;;;20.50;99.90;;;;;;5053950;28;20488;-72
2021/08/18 20:56:33;;;;;;;21.75;18.15;;;20.50;99.90;;;;;;5054124;28;20100;-73
2021/08/18 20:59:01;;;;;;;20.65;17.60;;;20.50;99.90;;;;;;5054590;28;20045;-79
2021/08/18 21:01:27;;;;;;;27.05;21.02;;;20.40;99.90;;;;;;5053006;28;20021;-78
2021/08/18 21:03:53;;;;;;;22.38;19.00;;;20.40;99.90;;;;;;5053978;28;20363;-82
2021/08/18 21:06:18;;;;;;;24.08;19.33;;;20.30;99.90;;;;;;5052600;28;20028;-79
2021/08/18 21:08:45;;;;;;;19.67;17.27;;;20.30;99.90;;;;;;5054059;28;20032;-75
2021/08/18 21:11:10;;;;;;;24.92;19.05;;;20.30;99.90;;;;;;5054218;28;20063;-80
2021/08/18 21:13:36;;;;;;;25.50;20.35;;;20.30;99.90;;;;;;5053908;28;20057;-77
2021/08/18 21:16:05;;;;;;;26.48;19.80;;;20.20;99.90;;;;;;5053909;28;20075;-73
2021/08/18 21:18:38;;;;;;;26.70;21.48;;;20.30;99.90;;;;;;5053657;28;20028;-75
2021/08/18 21:21:05;;;;;;;23.33;19.63;;;20.30;99.90;;;;;;5053816;28;20100;-76
2021/08/18 21:23:31;;;;;;;26.83;20.48;;;20.30;99.90;;;;;;5053917;28;20542;-76
2021/08/18 21:25:57;;;;;;;23.73;19.27;;;20.30;99.90;;;;;;5053741;28;20104;-74
2021/08/18 21:28:23;;;;;;;21.73;19.17;;;20.30;99.90;;;;;;5054028;28;20029;-78
2021/08/18 21:30:49;;;;;;;24.08;20.27;;;20.20;99.90;;;;;;5053774;28;20044;-73
2021/08/18 21:33:16;;;;;;;21.70;19.35;;;20.10;99.90;;;;;;5053626;28;20075;-77
2021/08/18 21:35:41;;;;;;;23.40;19.70;;;20.10;99.90;;;;;;5053691;28;20084;-74
2021/08/18 21:38:07;;;;;;;23.55;19.23;;;20.10;99.90;;;;;;5053662;28;20056;-74
2021/08/18 21:40:33;;;;;;;24.48;19.75;;;20.10;99.90;;;;;;5053590;28;20428;-80
2021/08/18 21:42:59;;;;;;;22.38;17.75;;;20.10;99.90;;;;;;5053445;28;20070;-73
2021/08/18 21:45:25;;;;;;;20.27;17.42;;;20.10;99.90;;;;;;5053727;28;20105;-79
2021/08/18 21:47:51;;;;;;;20.00;17.88;;;20.10;99.90;;;;;;5053460;28;20078;-77
2021/08/18 21:50:19;;;;;;;19.55;17.02;;;20.10;99.90;;;;;;5052232;28;20120;-77
2021/08/18 21:52:45;;;;;;;25.58;18.63;;;20.10;99.90;;;;;;5053582;28;20474;-78
2021/08/18 21:55:11;;;;;;;18.17;16.27;;;20.20;99.90;;;;;;5053394;28;20108;-80
2021/08/18 21:57:37;;;;;;;23.60;19.90;;;20.10;99.90;;;;;;5052153;28;20112;-81
2021/08/18 22:00:15;;;;;;;20.25;17.83;;;20.10;99.90;;;;;;5053813;28;20021;-79
2021/08/18 22:02:41;;;;;;;20.67;18.40;;;20.10;99.90;;;;;;5053715;28;20053;-77
2021/08/18 22:05:07;;;;;;;18.88;16.90;;;20.20;99.90;;;;;;5053862;28;20098;-80
2021/08/18 22:07:33;;;;;;;20.20;17.23;;;20.20;99.90;;;;;;5053283;28;20029;-74
2021/08/18 22:09:59;;;;;;;18.83;16.83;;;20.20;99.90;;;;;;5053706;28;20040;-76
2021/08/18 22:12:25;;;;;;;20.10;17.10;;;20.10;99.90;;;;;;5052256;28;20037;-78
2021/08/18 22:14:51;;;;;;;19.27;16.40;;;20.10;99.90;;;;;;5053144;28;20029;-77
2021/08/18 22:17:17;;;;;;;22.70;18.25;;;20.10;99.90;;;;;;5053201;28;20029;-80
2021/08/18 22:19:42;;;;;;;21.23;18.17;;;20.20;99.90;;;;;;5053431;28;20057;-72
2021/08/18 22:22:09;;;;;;;20.20;16.80;;;20.20;99.90;;;;;;5055250;28;20028;-74
2021/08/18 22:24:35;;;;;;;20.35;17.20;;;20.20;99.90;;;;;;5056939;28;20056;-78
2021/08/18 22:27:02;;;;;;;17.25;15.32;;;20.30;99.90;;;;;;5056843;28;20053;-79
2021/08/18 22:29:28;;;;;;;15.98;14.27;;;20.20;99.90;;;;;;5056960;28;20108;-78
2021/08/18 22:31:54;;;;;;;15.20;13.63;;;20.20;99.90;;;;;;5057096;28;20056;-80
2021/08/18 22:34:20;;;;;;;19.20;16.30;;;20.30;99.90;;;;;;5056486;28;20067;-80
2021/08/18 22:36:46;;;;;;;21.35;16.77;;;20.20;99.90;;;;;;5057263;28;20032;-79
2021/08/18 22:39:12;;;;;;;17.88;16.02;;;20.20;99.90;;;;;;5056821;28;20028;-78
2021/08/18 22:41:38;;;;;;;18.08;15.88;;;20.20;99.90;;;;;;5056934;28;20025;-79
2021/08/18 22:44:03;;;;;;;16.48;14.75;;;20.20;99.90;;;;;;5056503;28;20025;-77
2021/08/18 22:46:29;;;;;;;18.08;15.95;;;20.10;99.90;;;;;;5056965;28;20035;-74
2021/08/18 22:48:56;;;;;;;17.55;15.68;;;20.20;99.90;;;;;;5056554;28;20021;-77
2021/08/18 22:51:22;;;;;;;16.77;14.30;;;20.20;99.90;;;;;;5056474;28;20028;-77
2021/08/18 22:53:48;;;;;;;15.07;12.55;;;20.20;99.90;;;;;;5056308;28;20028;-77
2021/08/18 22:56:13;;;;;;;16.38;13.90;;;20.20;99.90;;;;;;5056394;28;20104;-74
2021/08/18 22:58:39;;;;;;;14.07;12.63;;;20.10;99.90;;;;;;5056164;28;20381;-78
2021/08/18 23:01:05;;;;;;;14.70;13.20;;;20.10;99.90;;;;;;5055413;28;20028;-76
2021/08/18 23:03:30;;;;;;;15.30;13.32;;;20.10;99.90;;;;;;5056119;28;20085;-79
2021/08/18 23:05:56;;;;;;;15.63;12.27;;;20.20;99.90;;;;;;5056582;28;20459;-77
2021/08/18 23:08:22;;;;;;;12.52;11.20;;;20.20;99.90;;;;;;5056626;28;20053;-74
2021/08/18 23:10:47;;;;;;;13.27;11.95;;;20.10;99.90;;;;;;5056387;28;20456;-79
2021/08/18 23:13:13;;;;;;;13.35;11.90;;;20.10;99.90;;;;;;5056346;28;20425;-77
2021/08/18 23:15:39;;;;;;;15.07;12.15;;;20.10;99.90;;;;;;5056481;28;20040;-75
2021/08/18 23:18:05;;;;;;;14.73;12.43;;;20.10;99.90;;;;;;5056135;28;20112;-77
2021/08/18 23:20:30;;;;;;;13.30;11.38;;;20.10;99.90;;;;;;5056499;28;20083;-76
2021/08/18 23:22:56;;;;;;;12.27;11.00;;;20.20;99.90;;;;;;5056134;28;20021;-74
2021/08/18 23:25:22;;;;;;;14.80;12.65;;;20.20;99.90;;;;;;5055703;28;20025;-79
2021/08/18 23:27:48;;;;;;;16.38;12.40;;;20.20;99.90;;;;;;5055729;28;20103;-79
2021/08/18 23:30:13;;;;;;;15.80;11.93;;;20.20;99.90;;;;;;5054830;28;20055;-77
2021/08/18 23:32:39;;;;;;;13.45;11.95;;;20.20;99.90;;;;;;5055501;28;20528;-75
2021/08/18 23:35:06;;;;;;;13.52;11.65;;;20.10;99.90;;;;;;5055291;28;20407;-75
2021/08/18 23:37:32;;;;;;;13.23;11.57;;;20.10;99.90;;;;;;5055551;28;20021;-73
2021/08/18 23:39:57;;;;;;;13.07;10.95;;;20.20;99.90;;;;;;5054230;28;20024;-76
2021/08/18 23:42:23;;;;;;;12.20;10.80;;;20.10;99.90;;;;;;5055715;28;20024;-78
2021/08/18 23:44:49;;;;;;;13.00;11.10;;;20.10;99.90;;;;;;5054648;28;20064;-76
2021/08/18 23:47:14;;;;;;;12.43;11.15;;;20.10;99.90;;;;;;5055424;28;20036;-78
2021/08/18 23:49:40;;;;;;;14.07;11.25;;;20.10;99.90;;;;;;5055938;28;20021;-75
2021/08/18 23:52:06;;;;;;;11.48;10.23;;;20.10;99.90;;;;;;5055264;28;20045;-78
2021/08/18 23:54:32;;;;;;;12.68;11.38;;;20.10;99.90;;;;;;5055146;28;20021;-78
2021/08/18 23:56:58;;;;;;;12.45;9.85;;;20.10;99.90;;;;;;5055537;28;20459;-80
2021/08/18 23:59:23;;;;;;;11.50;10.30;;;20.00;99.90;;;;;;5053964;28;20116;-74
